Time;durP1;ratioP1;P1;durP2;ratioP2;P2;SDS_P1;SDS_P2;PMS_P1;PMS_P2;Temp;Humidity;BMP_temperature;BMP_pressure;BME280_temperature;BME280_humidity;BME280_pressure;Samples;Min_cycle;Max_cycle;Signal;HPM_P1;HPM_P2
2022/07/15 00:02:07;;;;;;;6.47;3.35;;;29.80;52.60;;;;;;5032492;28;20039;-62
2022/07/15 00:04:33;;;;;;;7.45;3.33;;;29.80;52.70;;;;;;5039404;28;20028;-63
2022/07/15 00:06:58;;;;;;;7.53;3.40;;;29.80;52.80;;;;;;5038238;28;20032;-63
2022/07/15 00:10:13;;;;;;;7.63;3.25;;;29.70;52.70;;;;;;5036256;28;20033;-63
2022/07/15 00:12:09;;;;;;;5.15;2.97;;;29.70;52.90;;;;;;5037467;28;20494;-63
2022/07/15 00:14:35;;;;;;;8.70;3.17;;;29.60;52.90;;;;;;5018210;28;20045;-63
2022/07/15 00:17:01;;;;;;;10.10;2.83;;;29.60;52.90;;;;;;5037197;28;20367;-63
2022/07/15 00:19:27;;;;;;;4.22;2.60;;;29.60;53.00;;;;;;5036896;28;20052;-63
2022/07/15 00:21:52;;;;;;;12.98;2.95;;;29.50;53.00;;;;;;5041080;28;20028;-62
2022/07/15 00:24:18;;;;;;;7.03;2.97;;;29.50;53.10;;;;;;5039444;28;20044;-63
2022/07/15 00:26:43;;;;;;;10.57;3.10;;;29.50;53.10;;;;;;5037140;28;20432;-62
2022/07/15 00:29:09;;;;;;;7.03;3.20;;;29.40;53.10;;;;;;5018782;28;20067;-62
2022/07/15 00:31:35;;;;;;;6.20;3.10;;;29.40;53.20;;;;;;5034058;28;20037;-62
2022/07/15 00:34:01;;;;;;;8.77;2.92;;;29.40;53.20;;;;;;5020663;28;20479;-62
2022/07/15 00:36:26;;;;;;;10.52;3.00;;;29.40;53.30;;;;;;5034550;28;20048;-62
2022/07/15 00:38:52;;;;;;;5.10;2.78;;;29.30;53.30;;;;;;5035162;28;20056;-63
2022/07/15 00:41:17;;;;;;;15.82;3.13;;;29.30;53.30;;;;;;5019562;28;20036;-63
2022/07/15 00:43:43;;;;;;;6.32;2.90;;;29.20;53.30;;;;;;5036593;28;20018;-62
2022/07/15 00:46:09;;;;;;;10.85;3.08;;;29.30;53.40;;;;;;5038143;28;20064;-63
2022/07/15 00:48:34;;;;;;;10.00;2.85;;;29.20;53.40;;;;;;5037465;28;20162;-62
2022/07/15 00:51:00;;;;;;;7.70;2.55;;;29.20;53.50;;;;;;5035314;28;20033;-62
2022/07/15 00:53:26;;;;;;;6.10;2.80;;;29.20;53.50;;;;;;5036932;28;20473;-63
2022/07/15 00:55:52;;;;;;;8.32;3.15;;;29.20;53.50;;;;;;5039543;28;20039;-63
2022/07/15 00:58:20;;;;;;;5.97;2.67;;;29.10;53.50;;;;;;5020701;28;20469;-63
2022/07/15 01:00:47;;;;;;;7.20;3.05;;;29.10;53.50;;;;;;5020984;28;20037;-62
2022/07/15 01:03:13;;;;;;;7.85;2.70;;;29.10;53.50;;;;;;5037817;28;20525;-62
2022/07/15 01:05:39;;;;;;;8.23;2.70;;;29.00;53.50;;;;;;5036881;28;20029;-62
2022/07/15 01:08:04;;;;;;;7.95;2.80;;;29.00;53.50;;;;;;5021460;28;20031;-62
2022/07/15 01:10:30;;;;;;;4.93;2.95;;;28.90;53.50;;;;;;5038692;28;20722;-62
2022/07/15 01:12:56;;;;;;;13.60;3.20;;;28.90;53.50;;;;;;5038678;28;20104;-62
2022/07/15 01:15:21;;;;;;;7.47;3.10;;;28.90;53.50;;;;;;5037937;28;20024;-63
2022/07/15 01:17:47;;;;;;;13.32;3.30;;;28.90;53.60;;;;;;5038511;28;20493;-62
2022/07/15 01:20:13;;;;;;;6.60;3.40;;;28.80;53.50;;;;;;5038414;28;21031;-63
2022/07/15 01:22:39;;;;;;;7.97;2.92;;;28.80;53.50;;;;;;5021438;28;20029;-62
2022/07/15 01:25:05;;;;;;;9.70;3.15;;;28.80;53.60;;;;;;5021382;28;20036;-63
2022/07/15 01:27:32;;;;;;;6.28;2.97;;;28.70;53.50;;;;;;5035925;28;20029;-62
2022/07/15 01:29:59;;;;;;;8.13;2.88;;;28.70;53.60;;;;;;5038211;28;20371;-62
2022/07/15 01:32:24;;;;;;;5.18;3.15;;;28.70;53.60;;;;;;5036282;28;20037;-63
2022/07/15 01:34:51;;;;;;;6.93;3.08;;;28.60;53.60;;;;;;5037131;28;20360;-62
2022/07/15 01:37:17;;;;;;;7.03;2.80;;;28.70;53.60;;;;;;5038767;28;20048;-63
2022/07/15 01:39:42;;;;;;;8.30;3.47;;;28.70;53.70;;;;;;5041711;28;20123;-63
2022/07/15 01:42:08;;;;;;;6.32;3.17;;;28.60;53.60;;;;;;5040037;28;20028;-62
2022/07/15 01:44:33;;;;;;;5.95;3.67;;;28.60;53.60;;;;;;5042264;28;20507;-63
2022/07/15 01:46:59;;;;;;;10.23;3.38;;;28.60;53.60;;;;;;5039814;28;21201;-62
2022/07/15 01:49:25;;;;;;;7.18;3.00;;;28.50;53.60;;;;;;5041314;28;20039;-63
2022/07/15 01:51:55;;;;;;;4.90;3.40;;;28.50;53.60;;;;;;5041803;28;20037;-62
2022/07/15 01:54:21;;;;;;;6.47;2.90;;;28.50;53.60;;;;;;5040600;28;20178;-62
2022/07/15 01:56:48;;;;;;;5.65;2.90;;;28.40;53.60;;;;;;5023900;28;20033;-62
2022/07/15 01:59:14;;;;;;;5.57;2.45;;;28.40;53.60;;;;;;5040566;28;20362;-62
2022/07/15 02:01:39;;;;;;;5.43;3.53;;;28.40;53.60;;;;;;5042758;28;20021;-63
2022/07/15 02:04:05;;;;;;;3.72;2.70;;;28.40;53.70;;;;;;5043555;28;20044;-62
2022/07/15 02:06:30;;;;;;;8.70;3.03;;;28.30;53.70;;;;;;5039157;28;20044;-63
2022/07/15 02:08:56;;;;;;;7.53;3.33;;;28.30;53.70;;;;;;5039985;28;20053;-63
2022/07/15 02:11:22;;;;;;;8.98;3.10;;;28.30;53.70;;;;;;5035295;28;20136;-64
2022/07/15 02:13:47;;;;;;;4.82;3.20;;;28.30;53.80;;;;;;5043001;28;20040;-62
2022/07/15 02:16:13;;;;;;;6.93;2.78;;;28.30;53.80;;;;;;5024223;28;20476;-62
2022/07/15 02:18:39;;;;;;;8.55;3.53;;;28.20;53.80;;;;;;5041458;28;20404;-63
2022/07/15 02:21:05;;;;;;;7.80;3.28;;;28.20;53.70;;;;;;5041260;28;20105;-63
2022/07/15 02:23:30;;;;;;;6.35;3.10;;;28.10;53.80;;;;;;5040931;28;20037;-62
2022/07/15 02:25:56;;;;;;;5.85;3.58;;;28.10;53.80;;;;;;5021719;28;20049;-63
2022/07/15 02:28:21;;;;;;;4.97;3.03;;;28.10;53.90;;;;;;5041644;28;20024;-63
2022/07/15 02:30:47;;;;;;;5.45;3.05;;;28.00;53.80;;;;;;5040384;28;20536;-62
2022/07/15 02:33:13;;;;;;;5.45;3.13;;;28.00;53.80;;;;;;5042330;28;20565;-63
2022/07/15 02:35:39;;;;;;;5.25;3.38;;;28.00;53.80;;;;;;5022386;28;20060;-63
2022/07/15 02:38:04;;;;;;;12.23;3.83;;;28.00;53.80;;;;;;5041571;28;20037;-62
2022/07/15 02:40:33;;;;;;;4.45;3.10;;;27.90;53.80;;;;;;5040096;28;20079;-63
2022/07/15 02:42:59;;;;;;;7.20;3.40;;;27.90;53.80;;;;;;5040835;28;20385;-63
2022/07/15 02:45:27;;;;;;;7.20;3.47;;;27.90;53.80;;;;;;5039308;28;20140;-63
2022/07/15 02:47:52;;;;;;;4.82;3.20;;;27.80;53.80;;;;;;5040487;28;20429;-63
2022/07/15 02:50:18;;;;;;;6.80;3.90;;;27.90;53.90;;;;;;5040065;28;20032;-62
2022/07/15 02:52:44;;;;;;;5.93;3.78;;;27.80;53.80;;;;;;5040129;28;20357;-62
2022/07/15 02:55:10;;;;;;;8.13;3.58;;;27.80;53.90;;;;;;5041131;28;20302;-63
2022/07/15 02:57:36;;;;;;;4.78;3.40;;;27.80;53.90;;;;;;5041126;28;20039;-63
2022/07/15 03:00:03;;;;;;;5.20;3.20;;;27.80;54.00;;;;;;5040487;28;20112;-63
2022/07/15 03:02:28;;;;;;;7.07;3.60;;;27.70;53.90;;;;;;5041653;28;20029;-63
2022/07/15 03:04:54;;;;;;;7.72;3.38;;;27.70;54.00;;;;;;5039300;28;20393;-62
2022/07/15 03:07:20;;;;;;;5.28;3.33;;;27.70;54.00;;;;;;5042210;28;20025;-62
2022/07/15 03:09:45;;;;;;;4.03;3.15;;;27.70;54.10;;;;;;5041239;28;20039;-62
2022/07/15 03:12:11;;;;;;;3.75;2.78;;;27.70;54.10;;;;;;5040580;28;20043;-62
2022/07/15 03:14:36;;;;;;;5.65;3.20;;;27.60;54.00;;;;;;5041108;28;20103;-63
2022/07/15 03:17:02;;;;;;;8.13;3.22;;;27.60;54.10;;;;;;5039190;28;20206;-63
2022/07/15 03:19:27;;;;;;;8.55;3.00;;;27.60;54.20;;;;;;5040660;28;20025;-63
2022/07/15 03:21:53;;;;;;;8.10;3.70;;;27.60;54.20;;;;;;5021074;28;20106;-63
2022/07/15 03:24:18;;;;;;;6.10;3.25;;;27.50;54.10;;;;;;5041489;28;20109;-63
2022/07/15 03:26:44;;;;;;;5.43;3.38;;;27.50;54.20;;;;;;5040887;28;20074;-63
2022/07/15 03:29:10;;;;;;;13.77;3.00;;;27.50;54.30;;;;;;5038442;28;20036;-62
2022/07/15 03:31:36;;;;;;;7.65;3.42;;;27.50;54.30;;;;;;5037009;28;20037;-63
2022/07/15 03:34:01;;;;;;;4.93;2.95;;;27.40;54.30;;;;;;5039422;28;20024;-63
2022/07/15 03:36:27;;;;;;;6.90;3.03;;;27.50;54.40;;;;;;5041238;28;20043;-62
2022/07/15 03:38:52;;;;;;;7.03;3.30;;;27.40;54.30;;;;;;5024916;28;20060;-62
2022/07/15 03:41:18;;;;;;;9.00;3.38;;;27.40;54.40;;;;;;5039760;28;20040;-63
2022/07/15 03:43:45;;;;;;;3.53;2.85;;;27.40;54.40;;;;;;5039595;28;20072;-63
2022/07/15 03:46:10;;;;;;;7.28;3.17;;;27.30;54.30;;;;;;5040154;28;20569;-63
2022/07/15 03:48:36;;;;;;;6.68;3.17;;;27.30;54.30;;;;;;5041997;28;20024;-62
2022/07/15 03:51:01;;;;;;;5.40;2.90;;;27.30;54.40;;;;;;5044203;28;20036;-63
2022/07/15 03:53:27;;;;;;;4.82;3.00;;;27.30;54.40;;;;;;5041529;28;20033;-63
2022/07/15 03:55:52;;;;;;;7.13;3.40;;;27.30;54.50;;;;;;5040537;28;20053;-63
2022/07/15 03:58:18;;;;;;;6.70;3.05;;;27.20;54.50;;;;;;5039414;28;20300;-62
2022/07/15 04:00:43;;;;;;;6.00;3.15;;;27.20;54.50;;;;;;5038910;28;20454;-62
2022/07/15 04:03:09;;;;;;;8.38;3.22;;;27.20;55.10;;;;;;5041449;28;20139;-62
2022/07/15 04:05:35;;;;;;;7.10;3.30;;;27.20;54.60;;;;;;5038421;28;20653;-62
2022/07/15 04:08:00;;;;;;;9.63;3.33;;;27.10;54.50;;;;;;5022411;28;20114;-62
2022/07/15 04:10:26;;;;;;;8.07;3.15;;;27.10;54.60;;;;;;5037911;28;20495;-62
2022/07/15 04:12:51;;;;;;;7.20;2.83;;;27.10;54.60;;;;;;5039244;28;20147;-63
2022/07/15 04:15:17;;;;;;;6.30;2.85;;;27.10;54.60;;;;;;5036864;28;20032;-62
2022/07/15 04:17:42;;;;;;;17.17;4.35;;;27.10;54.80;;;;;;5040503;28;20043;-63
2022/07/15 04:20:08;;;;;;;9.55;3.22;;;27.00;54.70;;;;;;5037634;28;20358;-62
2022/07/15 04:22:40;;;;;;;8.40;3.33;;;27.00;54.80;;;;;;5022588;28;20127;-62
2022/07/15 04:25:08;;;;;;;9.23;3.15;;;27.00;54.80;;;;;;5039354;28;20030;-62
2022/07/15 04:27:33;;;;;;;11.85;3.40;;;27.00;54.80;;;;;;5039314;28;20036;-65
2022/07/15 04:29:59;;;;;;;17.35;4.22;;;27.00;54.90;;;;;;5036578;28;20041;-62
2022/07/15 04:32:25;;;;;;;15.18;3.95;;;27.00;54.90;;;;;;5039873;28;20076;-62
2022/07/15 04:34:51;;;;;;;16.25;4.65;;;26.90;54.90;;;;;;5036164;28;20328;-62
2022/07/15 04:37:16;;;;;;;19.98;4.35;;;26.90;55.00;;;;;;5038890;28;20036;-62
2022/07/15 04:39:42;;;;;;;19.00;4.07;;;26.90;55.00;;;;;;5021879;28;20133;-62
2022/07/15 04:42:07;;;;;;;20.73;3.60;;;26.90;55.00;;;;;;5038142;28;21035;-62
2022/07/15 04:44:33;;;;;;;8.65;3.40;;;26.90;55.10;;;;;;5038704;28;20033;-62
2022/07/15 04:46:58;;;;;;;10.65;3.67;;;26.90;55.10;;;;;;5038515;28;20043;-61
2022/07/15 04:52:08;;;;;;;17.33;3.83;;;26.80;55.20;;;;;;5037973;28;20242;-62
2022/07/15 04:54:34;;;;;;;12.52;4.05;;;26.80;55.20;;;;;;5038192;28;20218;-62
2022/07/15 04:56:59;;;;;;;14.40;3.60;;;26.70;55.20;;;;;;5039143;28;20871;-62
2022/07/15 04:59:26;;;;;;;13.50;3.95;;;26.70;55.10;;;;;;5005182;28;20053;-62
2022/07/15 05:01:53;;;;;;;9.15;3.17;;;26.70;55.20;;;;;;5040187;28;20541;-63
2022/07/15 05:04:18;;;;;;;18.20;4.18;;;26.70;55.30;;;;;;5038356;28;20032;-62
2022/07/15 05:06:44;;;;;;;14.48;3.78;;;26.70;55.30;;;;;;5038967;28;20538;-62
2022/07/15 05:09:10;;;;;;;11.82;3.38;;;26.60;55.40;;;;;;5039457;28;20040;-62
2022/07/15 05:11:35;;;;;;;16.35;3.50;;;26.70;55.50;;;;;;5038543;28;20365;-62
2022/07/15 05:14:01;;;;;;;12.00;3.55;;;26.60;55.40;;;;;;5022198;28;20040;-62
2022/07/15 05:16:26;;;;;;;8.48;2.97;;;26.60;55.60;;;;;;5038061;28;20116;-63
2022/07/15 05:18:52;;;;;;;9.25;3.17;;;26.60;55.60;;;;;;5037359;28;20434;-62
2022/07/15 05:21:18;;;;;;;12.65;3.42;;;26.60;55.60;;;;;;5041880;28;20040;-62
2022/07/15 05:23:43;;;;;;;10.38;3.60;;;26.50;55.60;;;;;;5038740;28;20053;-62
2022/07/15 05:26:11;;;;;;;8.05;2.97;;;26.50;55.70;;;;;;5042588;28;20568;-63
2022/07/15 05:28:37;;;;;;;14.13;3.30;;;26.50;55.80;;;;;;5040424;28;20025;-62
2022/07/15 05:31:03;;;;;;;9.30;3.38;;;26.50;55.90;;;;;;5043937;28;20036;-63
2022/07/15 05:33:29;;;;;;;7.05;2.70;;;26.40;55.90;;;;;;5040342;28;20056;-62
2022/07/15 05:35:54;;;;;;;12.30;3.47;;;26.40;55.90;;;;;;5044028;28;20083;-62
2022/07/15 05:38:20;;;;;;;10.02;3.00;;;26.40;56.00;;;;;;5040293;28;20059;-62
2022/07/15 05:40:45;;;;;;;6.97;2.80;;;26.40;56.00;;;;;;5041480;28;20388;-63
2022/07/15 05:43:11;;;;;;;10.93;3.20;;;26.40;56.10;;;;;;5024429;28;20183;-62
2022/07/15 05:45:36;;;;;;;9.32;2.75;;;26.30;56.00;;;;;;5041064;28;20464;-62
2022/07/15 05:48:02;;;;;;;11.68;2.83;;;26.30;56.60;;;;;;5043412;28;20551;-63
2022/07/15 05:50:28;;;;;;;9.50;2.85;;;26.30;56.00;;;;;;5041291;28;20697;-62
2022/07/15 05:52:53;;;;;;;8.02;2.85;;;26.30;55.90;;;;;;5037517;28;20057;-62
2022/07/15 05:55:19;;;;;;;9.77;2.95;;;26.30;55.90;;;;;;5039189;28;20045;-62
2022/07/15 05:57:44;;;;;;;9.18;2.45;;;26.30;56.00;;;;;;5037962;28;20179;-62
2022/07/15 06:00:11;;;;;;;6.85;2.70;;;26.30;55.90;;;;;;5042255;28;20492;-62
2022/07/15 06:02:36;;;;;;;6.13;2.50;;;26.20;56.00;;;;;;5042560;28;20025;-62
2022/07/15 06:05:02;;;;;;;4.97;2.67;;;26.20;56.10;;;;;;5042916;28;20534;-62
2022/07/15 06:07:27;;;;;;;8.27;3.13;;;26.20;56.20;;;;;;5038715;28;20549;-64
2022/07/15 06:09:53;;;;;;;6.97;2.50;;;26.10;56.30;;;;;;5042268;28;20532;-62
2022/07/15 06:12:18;;;;;;;8.45;2.63;;;26.10;56.20;;;;;;5040285;28;21079;-63
2022/07/15 06:14:44;;;;;;;7.18;3.10;;;26.10;56.20;;;;;;5039299;28;20493;-62
2022/07/15 06:17:09;;;;;;;4.18;2.25;;;26.10;56.30;;;;;;5037628;28;20111;-62
2022/07/15 06:19:35;;;;;;;8.65;2.63;;;26.10;56.30;;;;;;5041174;28;20075;-61
2022/07/15 06:22:01;;;;;;;6.70;2.80;;;26.10;56.20;;;;;;5038824;28;20043;-62
2022/07/15 06:24:26;;;;;;;8.18;2.55;;;26.00;56.30;;;;;;5039658;28;20041;-62
2022/07/15 06:26:52;;;;;;;6.55;2.83;;;26.00;56.30;;;;;;5024106;28;20439;-63
2022/07/15 06:29:18;;;;;;;14.75;2.95;;;26.00;56.40;;;;;;5040579;28;20849;-62
2022/07/15 06:31:43;;;;;;;13.23;3.58;;;26.00;56.70;;;;;;5040223;28;20139;-63
2022/07/15 06:34:09;;;;;;;11.60;3.20;;;25.90;56.70;;;;;;5032304;28;20029;-62
2022/07/15 06:36:34;;;;;;;13.02;3.20;;;25.90;56.70;;;;;;5028971;28;20490;-63
2022/07/15 06:39:00;;;;;;;14.18;2.90;;;25.90;56.90;;;;;;5040194;28;20120;-63
2022/07/15 06:41:25;;;;;;;17.75;3.95;;;25.90;56.90;;;;;;5041537;28;20048;-62
2022/07/15 06:43:51;;;;;;;20.58;3.92;;;25.90;57.00;;;;;;5038282;28;20124;-63
2022/07/15 06:46:16;;;;;;;12.93;3.38;;;25.90;57.10;;;;;;5041163;28;20120;-62
2022/07/15 06:48:42;;;;;;;14.23;3.33;;;25.80;57.00;;;;;;5037463;28;20087;-62
2022/07/15 06:51:08;;;;;;;18.83;3.75;;;25.80;57.20;;;;;;5022446;28;20566;-61
2022/07/15 06:53:33;;;;;;;13.57;3.40;;;25.80;57.80;;;;;;5021553;28;20457;-61
2022/07/15 06:55:59;;;;;;;16.58;3.70;;;25.80;57.20;;;;;;5022954;28;20083;-62
2022/07/15 06:58:25;;;;;;;344.45;36.33;;;25.80;57.30;;;;;;5032014;28;20034;-62
2022/07/15 07:00:51;;;;;;;50.92;7.35;;;25.80;57.40;;;;;;5035269;28;20047;-61
2022/07/15 07:03:16;;;;;;;31.55;5.43;;;25.80;57.60;;;;;;5035987;28;20025;-63
2022/07/15 07:05:42;;;;;;;28.25;4.57;;;25.70;57.70;;;;;;5037310;28;20095;-62
2022/07/15 07:08:07;;;;;;;28.83;5.00;;;25.70;57.70;;;;;;5040853;28;20068;-62
2022/07/15 07:10:33;;;;;;;27.80;4.82;;;25.70;57.80;;;;;;5038720;28;20087;-62
2022/07/15 07:12:58;;;;;;;38.50;5.82;;;25.70;57.90;;;;;;5022828;28;20079;-63
2022/07/15 07:15:24;;;;;;;31.52;5.00;;;25.70;58.00;;;;;;5041665;28;20107;-62
2022/07/15 07:17:51;;;;;;;23.63;4.38;;;25.70;58.10;;;;;;5032506;28;20397;-62
2022/07/15 07:20:16;;;;;;;27.30;5.35;;;25.70;58.10;;;;;;5034287;28;20037;-62
2022/07/15 07:22:42;;;;;;;27.98;4.28;;;25.70;58.10;;;;;;5034200;28;20059;-61
2022/07/15 07:25:08;;;;;;;18.90;4.85;;;25.40;58.10;;;;;;5034084;28;20045;-62
2022/07/15 07:27:33;;;;;;;21.83;4.55;;;25.70;58.20;;;;;;5021239;28;20064;-62
2022/07/15 07:30:01;;;;;;;15.50;4.10;;;25.60;58.30;;;;;;5032411;28;20043;-62
2022/07/15 07:32:27;;;;;;;24.20;4.82;;;25.60;58.50;;;;;;5035724;28;20120;-61
2022/07/15 07:34:52;;;;;;;22.75;4.10;;;25.60;58.50;;;;;;5033711;28;20100;-62
2022/07/15 07:37:18;;;;;;;23.35;4.50;;;25.50;58.50;;;;;;5035613;28;20063;-62
2022/07/15 07:39:44;;;;;;;36.30;4.97;;;25.60;58.70;;;;;;5038681;28;20275;-62
2022/07/15 07:42:09;;;;;;;23.88;4.25;;;25.50;58.60;;;;;;5035373;28;20085;-62
2022/07/15 07:44:36;;;;;;;23.77;5.35;;;25.60;58.60;;;;;;5035716;28;20128;-62
2022/07/15 07:47:02;;;;;;;26.45;5.65;;;25.60;58.70;;;;;;5035065;28;20037;-63
2022/07/15 07:49:27;;;;;;;42.88;5.68;;;25.60;58.60;;;;;;5020409;28;20056;-62
2022/07/15 07:51:53;;;;;;;23.80;4.72;;;25.60;58.80;;;;;;5032370;28;20109;-62
2022/07/15 07:54:18;;;;;;;21.63;4.22;;;25.60;58.80;;;;;;5032873;28;20028;-61
2022/07/15 07:56:45;;;;;;;22.50;4.20;;;25.60;58.80;;;;;;5039835;28;20071;-62
2022/07/15 07:59:11;;;;;;;26.98;5.05;;;25.60;58.80;;;;;;5035492;28;20509;-62
2022/07/15 08:01:36;;;;;;;23.45;4.55;;;25.60;58.80;;;;;;5019136;28;20147;-62
2022/07/15 08:04:02;;;;;;;15.45;4.28;;;25.60;58.90;;;;;;5034201;28;20021;-62
2022/07/15 08:06:27;;;;;;;25.20;4.07;;;25.50;58.80;;;;;;5032765;28;20052;-63
2022/07/15 08:08:53;;;;;;;17.05;4.65;;;25.60;58.90;;;;;;5032764;28;20045;-63
2022/07/15 08:11:19;;;;;;;22.55;4.93;;;25.60;59.00;;;;;;5035294;28;20037;-62
2022/07/15 08:13:45;;;;;;;12.10;3.60;;;25.60;59.10;;;;;;5037133;28;20113;-62
2022/07/15 08:16:10;;;;;;;19.30;4.25;;;25.60;59.10;;;;;;5022192;28;20517;-62
2022/07/15 08:18:36;;;;;;;23.20;3.95;;;25.50;59.10;;;;;;5022747;28;20026;-62
2022/07/15 08:21:03;;;;;;;19.60;4.15;;;25.50;59.80;;;;;;5039519;28;20025;-62
2022/07/15 08:23:31;;;;;;;26.10;4.53;;;25.50;59.40;;;;;;5042058;28;20026;-63
2022/07/15 08:25:57;;;;;;;36.78;5.45;;;25.50;59.50;;;;;;5019637;28;20032;-62
2022/07/15 08:28:24;;;;;;;34.20;5.00;;;25.50;59.60;;;;;;5006716;28;20057;-63
2022/07/15 08:30:50;;;;;;;31.13;5.95;;;25.50;59.90;;;;;;5021060;28;20036;-61
2022/07/15 08:33:15;;;;;;;27.15;5.25;;;25.50;59.90;;;;;;5033247;28;20049;-62
2022/07/15 08:35:41;;;;;;;19.00;4.95;;;25.50;59.90;;;;;;5036232;28;20032;-62
2022/07/15 08:38:07;;;;;;;20.73;4.93;;;25.50;60.00;;;;;;5036242;28;20029;-62
2022/07/15 08:40:33;;;;;;;60.38;7.43;;;25.50;60.10;;;;;;5038681;28;20107;-61
2022/07/15 08:42:59;;;;;;;41.15;7.13;;;25.50;60.10;;;;;;5004273;28;20120;-61
2022/07/15 08:45:25;;;;;;;42.72;6.53;;;25.50;59.90;;;;;;5033307;28;20100;-62
2022/07/15 08:47:52;;;;;;;36.58;5.60;;;25.50;60.00;;;;;;5032658;28;20083;-61
2022/07/15 08:50:18;;;;;;;37.08;5.80;;;25.50;60.10;;;;;;5020474;28;20025;-62
2022/07/15 08:52:45;;;;;;;40.35;6.13;;;25.50;60.10;;;;;;5003739;28;20041;-62
2022/07/15 08:55:11;;;;;;;35.22;5.50;;;25.50;60.10;;;;;;5014390;28;20037;-62
2022/07/15 08:57:36;;;;;;;64.13;7.88;;;25.50;60.00;;;;;;5010546;28;20033;-62
2022/07/15 09:00:04;;;;;;;39.92;7.10;;;25.50;60.60;;;;;;5015297;28;20067;-62
2022/07/15 09:02:30;;;;;;;32.28;5.55;;;25.50;60.50;;;;;;5028006;28;20022;-62
2022/07/15 09:05:18;;;;;;;18.75;4.82;;;25.60;60.40;;;;;;5022053;28;20043;-62
2022/07/15 09:08:14;;;;;;;34.10;5.55;;;25.60;60.20;;;;;;5034596;28;20033;-61
2022/07/15 09:10:52;;;;;;;29.50;5.10;;;25.60;60.20;;;;;;5039154;28;20526;-64
2022/07/15 09:13:40;;;;;;;35.70;5.10;;;25.60;60.00;;;;;;5026388;28;20046;-62
2022/07/15 09:16:08;;;;;;;51.55;6.07;;;25.60;60.30;;;;;;5030247;28;20099;-62
2022/07/15 09:18:39;;;;;;;190.68;23.20;;;25.60;60.00;;;;;;5029626;28;20036;-62
2022/07/15 09:21:21;;;;;;;56.35;7.68;;;25.60;60.40;;;;;;5002000;28;20139;-62
2022/07/15 09:23:47;;;;;;;43.38;5.97;;;25.60;60.50;;;;;;5018652;28;20065;-62
2022/07/15 09:26:33;;;;;;;103.97;11.93;;;25.70;60.40;;;;;;5020699;28;20481;-61
2022/07/15 09:28:59;;;;;;;56.78;6.85;;;25.60;60.70;;;;;;5021336;28;20029;-62
2022/07/15 09:34:18;;;;;;;26.27;4.90;;;25.60;60.60;;;;;;5022175;28;20078;-62
2022/07/15 09:36:50;;;;;;;31.02;5.97;;;25.70;60.30;;;;;;5002824;28;22235;-62
2022/07/15 09:39:19;;;;;;;28.02;4.90;;;25.70;60.50;;;;;;5014679;28;20496;-62
2022/07/15 09:41:45;;;;;;;27.50;5.57;;;25.70;60.30;;;;;;5015106;28;20112;-63
2022/07/15 09:44:19;;;;;;;17.17;5.35;;;25.70;60.20;;;;;;5006848;28;20555;-63
2022/07/15 09:46:57;;;;;;;25.58;4.90;;;25.70;60.00;;;;;;5009156;28;20047;-62
2022/07/15 09:49:23;;;;;;;30.85;5.22;;;25.70;60.00;;;;;;5009769;28;20506;-61
2022/07/15 09:51:58;;;;;;;23.00;4.72;;;25.80;60.00;;;;;;5026658;28;20029;-62
2022/07/15 09:54:34;;;;;;;29.40;5.32;;;25.70;60.00;;;;;;4997975;28;20044;-62
2022/07/15 09:57:04;;;;;;;20.23;5.05;;;25.80;60.20;;;;;;5016400;28;20037;-61
2022/07/15 09:59:30;;;;;;;26.80;4.68;;;25.80;60.40;;;;;;5007501;28;20029;-62
2022/07/15 10:01:56;;;;;;;32.90;4.50;;;25.80;60.00;;;;;;5020316;28;20051;-61
2022/07/15 10:04:25;;;;;;;30.02;4.93;;;25.80;59.80;;;;;;5016470;28;20589;-60
2022/07/15 10:06:52;;;;;;;24.77;4.55;;;25.90;60.00;;;;;;5032154;28;20048;-59
2022/07/15 10:09:29;;;;;;;25.80;4.93;;;25.80;59.90;;;;;;4997556;28;20068;-60
2022/07/15 10:12:10;;;;;;;23.50;4.57;;;25.90;60.10;;;;;;5027724;28;20041;-62
2022/07/15 10:14:53;;;;;;;17.95;4.30;;;25.90;60.00;;;;;;5004199;28;20033;-63
2022/07/15 10:17:27;;;;;;;41.50;5.45;;;25.90;60.00;;;;;;5034234;28;20053;-60
2022/07/15 10:20:15;;;;;;;26.67;5.35;;;25.90;60.10;;;;;;5039699;28;20021;-61
2022/07/15 10:23:02;;;;;;;36.20;6.30;;;26.00;60.00;;;;;;5037569;28;20028;-60
2022/07/15 10:25:51;;;;;;;26.15;6.68;;;26.00;59.80;;;;;;5032005;28;20040;-61
2022/07/15 10:28:29;;;;;;;44.25;5.68;;;26.00;59.80;;;;;;5035184;28;20048;-60
2022/07/15 10:31:18;;;;;;;39.28;6.43;;;26.00;59.80;;;;;;5015848;28;20041;-61
2022/07/15 10:34:03;;;;;;;43.40;5.90;;;26.00;59.60;;;;;;5023980;28;20885;-60
2022/07/15 10:36:53;;;;;;;32.10;6.57;;;26.10;59.70;;;;;;5033295;28;20095;-60
2022/07/15 10:39:24;;;;;;;35.97;5.78;;;26.00;59.60;;;;;;5013129;28;20055;-60
2022/07/15 10:41:59;;;;;;;44.97;6.18;;;26.10;59.70;;;;;;5001963;28;20039;-62
2022/07/15 10:44:36;;;;;;;34.10;5.50;;;26.20;59.60;;;;;;5035483;28;20082;-60
2022/07/15 10:47:14;;;;;;;45.20;6.30;;;26.20;59.20;;;;;;5012181;28;20113;-60
2022/07/15 10:49:40;;;;;;;35.90;6.47;;;26.20;59.40;;;;;;5028674;28;20049;-63
2022/07/15 10:52:22;;;;;;;37.50;7.05;;;26.30;59.40;;;;;;5028990;28;20063;-60
2022/07/15 10:54:49;;;;;;;44.42;7.47;;;26.40;59.20;;;;;;5010760;28;20645;-60
2022/07/15 10:57:18;;;;;;;45.95;7.20;;;26.50;59.30;;;;;;5031737;28;20143;-61
2022/07/15 10:59:55;;;;;;;27.73;6.90;;;26.50;59.10;;;;;;5015970;28;20104;-61
2022/07/15 11:02:22;;;;;;;40.30;6.20;;;26.60;59.00;;;;;;5035301;28;20025;-60
2022/07/15 11:04:48;;;;;;;26.40;5.88;;;26.70;58.90;;;;;;5019712;28;20025;-61
2022/07/15 11:07:14;;;;;;;39.55;6.18;;;26.80;58.40;;;;;;5003273;28;20190;-61
2022/07/15 11:10:01;;;;;;;24.20;4.97;;;26.80;58.30;;;;;;5030590;28;20152;-61
2022/07/15 11:12:34;;;;;;;26.77;4.80;;;26.90;58.00;;;;;;5028531;28;20677;-61
2022/07/15 11:15:00;;;;;;;18.88;4.63;;;27.00;57.60;;;;;;5028982;28;20051;-61
2022/07/15 11:17:28;;;;;;;45.72;6.28;;;27.00;57.50;;;;;;5021526;28;20228;-63
2022/07/15 11:20:11;;;;;;;23.92;5.70;;;27.10;57.70;;;;;;5031291;28;20041;-60
2022/07/15 11:22:38;;;;;;;34.10;5.75;;;27.20;57.60;;;;;;5030460;28;20040;-61
2022/07/15 11:25:05;;;;;;;38.50;6.30;;;27.20;57.20;;;;;;5017305;28;20727;-61
2022/07/15 11:27:30;;;;;;;20.73;4.80;;;27.30;56.90;;;;;;5017454;28;20041;-61
2022/07/15 11:30:02;;;;;;;31.10;5.30;;;27.50;56.60;;;;;;5030948;28;20098;-62
2022/07/15 11:32:29;;;;;;;35.80;6.13;;;27.50;56.60;;;;;;5032821;28;20030;-60
2022/07/15 11:34:56;;;;;;;55.90;7.68;;;27.60;56.30;;;;;;5029629;28;20057;-60
2022/07/15 11:37:32;;;;;;;49.03;6.93;;;27.80;56.00;;;;;;5011972;28;21901;-60
2022/07/15 11:40:06;;;;;;;39.70;6.35;;;27.90;56.10;;;;;;5033930;28;20056;-64
2022/07/15 11:45:16;;;;;;;32.15;6.00;;;28.10;55.90;;;;;;5033645;28;20056;-61
2022/07/15 11:47:52;;;;;;;40.67;6.25;;;28.20;55.20;;;;;;5032778;28;20037;-60
2022/07/15 11:50:19;;;;;;;21.83;6.25;;;28.30;55.40;;;;;;5032016;28;20165;-61
2022/07/15 11:52:44;;;;;;;37.15;4.88;;;28.30;55.20;;;;;;5035149;28;20035;-60
2022/07/15 11:55:10;;;;;;;28.10;5.50;;;28.50;54.80;;;;;;5016206;28;20041;-61
2022/07/15 11:57:35;;;;;;;29.50;4.75;;;28.50;54.70;;;;;;5030075;28;20030;-61
2022/07/15 12:00:02;;;;;;;30.25;5.07;;;28.60;54.50;;;;;;5034466;28;20126;-61
2022/07/15 12:02:28;;;;;;;20.83;4.55;;;28.70;54.40;;;;;;5033360;28;20029;-61
2022/07/15 12:05:04;;;;;;;21.17;4.32;;;28.80;54.40;;;;;;5025703;28;20131;-61
2022/07/15 12:07:43;;;;;;;20.95;4.55;;;28.80;54.20;;;;;;4998609;28;20480;-61
2022/07/15 12:10:09;;;;;;;30.65;5.35;;;28.90;54.00;;;;;;5029775;28;20367;-61
2022/07/15 12:12:58;;;;;;;16.10;4.45;;;29.00;53.80;;;;;;5018053;28;20705;-61
2022/07/15 12:15:24;;;;;;;17.67;4.35;;;29.10;53.40;;;;;;5013479;28;20029;-61
2022/07/15 12:17:49;;;;;;;13.50;3.85;;;29.10;53.60;;;;;;5024947;28;20519;-61
2022/07/15 12:20:15;;;;;;;19.25;3.78;;;29.20;53.60;;;;;;5025711;28;20520;-61
2022/07/15 12:23:03;;;;;;;27.08;4.60;;;29.30;53.70;;;;;;5026208;28;20048;-61
2022/07/15 12:25:28;;;;;;;21.17;4.00;;;29.40;53.80;;;;;;5036186;28;20087;-60
2022/07/15 12:27:54;;;;;;;23.98;4.25;;;29.30;53.50;;;;;;5013633;28;20041;-60
2022/07/15 12:30:20;;;;;;;17.05;4.60;;;29.50;53.50;;;;;;5025699;28;20104;-61
2022/07/15 12:32:46;;;;;;;27.17;4.70;;;29.70;53.40;;;;;;5026602;28;20041;-62
2022/07/15 12:35:11;;;;;;;33.92;5.70;;;29.70;52.90;;;;;;5033198;28;20046;-62
2022/07/15 12:37:39;;;;;;;41.88;6.90;;;29.80;52.90;;;;;;5033415;28;20044;-61
2022/07/15 12:40:06;;;;;;;37.67;6.40;;;29.90;53.00;;;;;;5032488;28;20469;-61
2022/07/15 12:42:41;;;;;;;37.08;6.35;;;30.00;52.90;;;;;;5034512;28;20626;-61
2022/07/15 12:45:16;;;;;;;50.10;6.80;;;30.00;52.80;;;;;;5034091;28;20086;-61
2022/07/15 12:48:02;;;;;;;;;;;30.10;52.20;;;;;;5027561;28;20033;-61
2022/07/15 12:50:28;;;;;;;32.10;6.60;;;30.20;52.30;;;;;;5036532;28;20430;-61
2022/07/15 12:52:54;;;;;;;38.38;6.97;;;30.30;52.50;;;;;;5016942;28;20041;-62